»·PEaware :: AAL831 KPHX-KLAS

AAL831 :: KPHX-KLAS

FLIGHT INFORMATION

Flight Status: Arrived
Operator:
American Airlines
More flights by this operator :: More flights under this callsign
Pilot: Chandler S. (807)
Aircraft: AIRBUS A321
(A321)
More flights by this aircraft type
Origin: KPHX Phoenix Sky Harbor Intl
United States
Destination: KLAS McCarran Intl
United States
More flights between these airports :: More routes between these airports
Route: ZEPER2 RRSTA IGM TYSSN5
File this flight plan on PilotEdge
Remarks:
Altitude:
(Current/Filed)
28,000ft
Speed:
(Current/Filed)
400kts
Departed: 17-Oct-20 03:56 PM
Arrived: 17-Oct-20 04:37 PM
Distance/Time
Traveled:
222nm/0:40
Distance/Time
To Go:
Arrived

Flight Plot

Page will automatically refresh every two minutes.

Flight plan parsing failed; only flown route is shown


Map Options




Map Legend


Flown Route
Filed Route
Departure Airport
Arrival Airport
Navaid (VOR, NDB)
Fix

Horizontal Profiles

Position Reports

Time Latitude Longitude Heading Altitude Ground
Speed
17-Oct-20 15:36 33.437547 -111.998740 270 1140ft 0kts
17-Oct-20 15:37 33.437547 -111.998740 270 1140ft 0kts
17-Oct-20 15:38 33.437547 -111.998740 270 1140ft 0kts
17-Oct-20 15:39 33.437547 -111.998740 270 1140ft 0kts
17-Oct-20 15:40 33.437547 -111.998740 270 1140ft 0kts
17-Oct-20 15:41 33.437547 -111.998740 270 1140ft 0kts
17-Oct-20 15:42 33.437547 -111.998740 270 1140ft 0kts
17-Oct-20 15:43 33.437547 -111.998740 270 1140ft 0kts
17-Oct-20 15:44 33.437547 -111.998661 268 1140ft 2kts
17-Oct-20 15:45 33.437297 -111.998073 344 1140ft 2kts
17-Oct-20 15:46 33.437136 -111.998055 1 1140ft 0kts
17-Oct-20 15:47 33.437172 -111.998054 1 1140ft 1kts
17-Oct-20 15:48 33.438923 -111.998285 311 1140ft 11kts
17-Oct-20 15:49 33.439002 -112.004363 269 1140ft 22kts
17-Oct-20 15:50 33.438926 -112.012387 270 1140ft 25kts
17-Oct-20 15:51 33.438977 -112.021005 269 1140ft 26kts
17-Oct-20 15:52 33.439170 -112.029521 315 1140ft 17kts
17-Oct-20 15:53 33.439836 -112.029682 359 1140ft 0kts
17-Oct-20 15:54 33.439863 -112.029682 359 1140ft 2kts
17-Oct-20 15:55 33.440926 -112.013241 90 1141ft 177kts
17-Oct-20 15:56 33.438476 -111.941346 94 4248ft 246kts
17-Oct-20 15:57 33.446769 -111.856704 39 7400ft 284kts
17-Oct-20 15:58 33.530642 -111.848481 359 9014ft 335kts
17-Oct-20 15:59 33.624690 -111.839794 3 9037ft 340kts
17-Oct-20 16:00 33.722180 -111.849212 343 11281ft 378kts
17-Oct-20 16:01 33.794037 -111.944752 303 14784ft 416kts
17-Oct-20 16:02 33.862322 -112.061961 305 18469ft 438kts
17-Oct-20 16:03 33.934921 -112.181821 305 20951ft 449kts
17-Oct-20 16:04 34.009417 -112.304216 307 20958ft 455kts
17-Oct-20 16:05 34.100542 -112.408357 318 23106ft 445kts
17-Oct-20 16:06 34.191799 -112.499459 317 26901ft 407kts
17-Oct-20 16:07 34.278629 -112.587090 317 28135ft 419kts
17-Oct-20 16:08 34.372183 -112.682018 317 28167ft 457kts
17-Oct-20 16:09 34.470883 -112.782457 317 28167ft 465kts
17-Oct-20 16:10 34.569874 -112.883231 317 28166ft 466kts
17-Oct-20 16:11 34.669109 -112.984699 317 28167ft 468kts
17-Oct-20 16:12 34.768240 -113.087211 314 28165ft 469kts
17-Oct-20 16:13 34.849689 -113.209033 299 28141ft 465kts
17-Oct-20 16:14 34.915745 -113.344423 303 28108ft 466kts
17-Oct-20 16:15 34.991036 -113.473121 305 28095ft 468kts
17-Oct-20 16:16 35.066834 -113.602322 305 28095ft 470kts
17-Oct-20 16:17 35.142746 -113.731996 305 27640ft 458kts
17-Oct-20 16:18 35.214166 -113.854512 305 25689ft 435kts
17-Oct-20 16:19 35.292326 -113.963710 320 23679ft 425kts
17-Oct-20 16:20 35.384364 -114.049403 322 21538ft 413kts
17-Oct-20 16:21 35.474738 -114.133506 322 19324ft 402kts
17-Oct-20 16:22 35.562396 -114.215190 322 16914ft 390kts
17-Oct-20 16:23 35.647453 -114.294650 322 14919ft 380kts
17-Oct-20 16:24 35.728873 -114.370829 324 12763ft 351kts
17-Oct-20 16:25 35.810046 -114.415227 339 12023ft 296kts
17-Oct-20 16:26 35.882886 -114.459048 311 12014ft 296kts
17-Oct-20 16:27 35.936154 -114.536526 312 11860ft 298kts
17-Oct-20 16:28 35.991612 -114.613897 313 9736ft 294kts
17-Oct-20 16:29 36.043736 -114.686380 313 8297ft 277kts
17-Oct-20 16:30 36.073787 -114.766754 270 7897ft 272kts
17-Oct-20 16:31 36.073302 -114.860885 271 6117ft 268kts
17-Oct-20 16:32 36.073362 -114.947262 271 4621ft 228kts
17-Oct-20 16:33 36.073413 -115.017665 271 3813ft 193kts
17-Oct-20 16:34 36.073613 -115.079948 271 3004ft 166kts
17-Oct-20 16:35 36.073693 -115.134503 269 2191ft 140kts
17-Oct-20 16:36 36.075200 -115.151224 322 2190ft 20kts
17-Oct-20 16:37 36.077441 -115.152572 344 2190ft 0kts
17-Oct-20 16:38 36.078007 -115.150799 93 2190ft 18kts

Navigation Log

Ident Type
Flight plan parsing failed, navigation log unavailable